Time;durP1;ratioP1;P1;durP2;ratioP2;P2;SDS_P1;SDS_P2;PMS_P1;PMS_P2;Temp;Humidity;BMP_temperature;BMP_pressure;BME280_temperature;BME280_humidity;BME280_pressure;Samples;Min_cycle;Max_cycle;Signal;HPM_P1;HPM_P2
2022/06/19 00:00:51;;;;;;;7.03;6.15;;;21.50;99.90;;;;;;5030003;28;20476;-86
2022/06/19 00:03:31;;;;;;;7.68;6.00;;;21.40;99.90;;;;;;5030149;28;20053;-86
2022/06/19 00:05:57;;;;;;;12.23;6.38;;;21.40;99.90;;;;;;5028540;28;20493;-87
2022/06/19 00:08:23;;;;;;;6.78;5.97;;;21.30;99.90;;;;;;5029259;28;20037;-86
2022/06/19 00:10:49;;;;;;;8.65;6.15;;;21.30;99.90;;;;;;5031928;28;20029;-86
2022/06/19 00:13:16;;;;;;;9.90;5.57;;;21.30;99.90;;;;;;5023290;28;20502;-86
2022/06/19 00:15:41;;;;;;;8.77;6.30;;;21.30;99.90;;;;;;5026712;28;20022;-87
2022/06/19 00:18:07;;;;;;;8.55;6.32;;;21.30;99.90;;;;;;5022437;28;20035;-87
2022/06/19 00:20:33;;;;;;;8.25;6.10;;;21.30;99.90;;;;;;5029321;28;20033;-88
2022/06/19 00:22:59;;;;;;;6.57;5.90;;;21.20;99.90;;;;;;5031464;28;20113;-86
2022/06/19 00:25:24;;;;;;;9.05;5.95;;;21.20;99.90;;;;;;5033728;28;20064;-87
2022/06/19 00:27:50;;;;;;;6.75;6.03;;;21.20;99.90;;;;;;5034866;28;20021;-87
2022/06/19 00:30:16;;;;;;;6.68;5.60;;;21.10;99.90;;;;;;5030264;28;20041;-86
2022/06/19 00:32:42;;;;;;;8.60;5.80;;;21.10;99.90;;;;;;5015824;28;20033;-87
2022/06/19 00:35:08;;;;;;;9.05;5.95;;;21.20;99.90;;;;;;5030064;28;20112;-87
2022/06/19 00:37:34;;;;;;;9.18;5.63;;;21.20;99.90;;;;;;5031535;28;20105;-86
2022/06/19 00:40:01;;;;;;;7.50;5.00;;;21.20;99.90;;;;;;5032966;28;20025;-86
2022/06/19 00:42:29;;;;;;;5.78;5.22;;;21.20;99.90;;;;;;5027878;28;20196;-86
2022/06/19 00:44:54;;;;;;;8.52;5.75;;;21.20;99.90;;;;;;5031781;28;20017;-89
2022/06/19 00:47:26;;;;;;;8.90;6.00;;;21.20;99.90;;;;;;5033681;28;20040;-90
2022/06/19 00:50:03;;;;;;;7.72;5.07;;;21.20;99.90;;;;;;5029752;28;20022;-89
2022/06/19 00:52:40;;;;;;;5.38;4.90;;;21.10;99.90;;;;;;5041218;28;20052;-89
2022/06/19 00:55:13;;;;;;;7.43;5.38;;;21.10;99.90;;;;;;5035142;28;20025;-90
2022/06/19 00:57:42;;;;;;;6.10;5.45;;;21.10;99.90;;;;;;5037810;28;20637;-90
2022/06/19 01:00:16;;;;;;;8.05;5.13;;;21.00;99.90;;;;;;5033759;28;20022;-90
2022/06/19 01:02:44;;;;;;;7.18;5.40;;;21.00;99.90;;;;;;5034656;28;20018;-89
2022/06/19 01:05:15;;;;;;;6.75;5.18;;;21.00;99.90;;;;;;5033819;28;20065;-90
2022/06/19 01:07:43;;;;;;;6.25;5.10;;;21.00;99.90;;;;;;5034436;28;20060;-89
2022/06/19 01:10:12;;;;;;;7.53;5.22;;;21.00;99.90;;;;;;5033049;28;20472;-91
2022/06/19 01:12:40;;;;;;;7.00;5.07;;;21.00;99.90;;;;;;5034584;28;20032;-90
2022/06/19 01:15:09;;;;;;;6.05;4.72;;;21.00;99.90;;;;;;5024227;28;20025;-88
2022/06/19 01:17:35;;;;;;;5.85;4.57;;;21.10;99.90;;;;;;5033819;28;20066;-88
2022/06/19 01:20:04;;;;;;;5.00;4.55;;;21.10;99.90;;;;;;5031761;28;20022;-89
2022/06/19 01:22:42;;;;;;;6.07;4.35;;;21.20;99.90;;;;;;5033492;28;20056;-88
2022/06/19 01:25:08;;;;;;;5.10;4.30;;;21.30;99.90;;;;;;5017919;28;20092;-88
2022/06/19 01:30:25;;;;;;;6.55;4.35;;;21.40;99.90;;;;;;5036390;28;20040;-90
2022/06/19 01:32:51;;;;;;;7.25;4.50;;;21.40;99.90;;;;;;5012921;28;20088;-87
2022/06/19 01:35:20;;;;;;;8.82;4.28;;;21.40;99.90;;;;;;5032508;28;20473;-89
2022/06/19 01:37:48;;;;;;;7.72;4.25;;;21.40;99.90;;;;;;5033752;28;20025;-90
2022/06/19 01:40:21;;;;;;;4.97;4.13;;;21.30;99.90;;;;;;5033096;28;20025;-89
2022/06/19 01:42:48;;;;;;;4.90;4.10;;;21.20;99.90;;;;;;5033299;28;20025;-89
2022/06/19 01:45:16;;;;;;;5.05;4.28;;;21.30;99.90;;;;;;5030290;28;20108;-88
2022/06/19 01:47:43;;;;;;;6.28;4.25;;;21.30;99.90;;;;;;5031739;28;20481;-88
2022/06/19 01:50:14;;;;;;;7.35;3.95;;;21.20;99.90;;;;;;5029672;28;20034;-88
2022/06/19 01:52:40;;;;;;;6.15;4.30;;;21.30;99.90;;;;;;5032068;28;20014;-89
2022/06/19 01:55:08;;;;;;;4.78;4.13;;;21.30;99.90;;;;;;5032217;28;20116;-88
2022/06/19 01:57:38;;;;;;;10.45;4.10;;;21.30;99.90;;;;;;5033409;28;20018;-88
2022/06/19 02:00:07;;;;;;;4.50;3.60;;;21.30;99.90;;;;;;5033256;28;20053;-89
2022/06/19 02:02:33;;;;;;;8.70;4.45;;;21.30;99.90;;;;;;5033540;28;20017;-89
2022/06/19 02:05:00;;;;;;;5.40;4.18;;;21.30;99.90;;;;;;5032168;28;20510;-88
2022/06/19 02:07:28;;;;;;;8.10;4.30;;;21.20;99.90;;;;;;5032848;28;20040;-88
2022/06/19 02:09:54;;;;;;;8.02;4.35;;;21.20;99.90;;;;;;5032301;28;20100;-89
2022/06/19 02:12:23;;;;;;;7.68;4.00;;;21.10;99.90;;;;;;5033836;28;20037;-87
2022/06/19 02:14:52;;;;;;;5.30;3.70;;;21.00;99.90;;;;;;5032028;28;20053;-88
2022/06/19 02:17:29;;;;;;;4.20;3.55;;;21.10;99.90;;;;;;5032012;28;20091;-90
2022/06/19 02:19:55;;;;;;;4.13;3.70;;;21.10;99.90;;;;;;5028602;28;20025;-90
2022/06/19 02:22:20;;;;;;;3.92;3.33;;;21.20;99.90;;;;;;5033141;28;20021;-89
2022/06/19 02:24:46;;;;;;;3.40;3.10;;;21.20;99.90;;;;;;5031383;28;20515;-89
2022/06/19 02:27:12;;;;;;;5.53;3.70;;;21.20;99.90;;;;;;5032932;28;20033;-88
2022/06/19 02:29:40;;;;;;;5.88;3.97;;;21.10;99.90;;;;;;5031225;28;20028;-89
2022/06/19 02:32:20;;;;;;;5.25;3.75;;;21.10;99.90;;;;;;5032425;28;20045;-88
2022/06/19 02:34:45;;;;;;;4.28;3.83;;;21.10;99.90;;;;;;5031314;28;20026;-89
2022/06/19 02:37:21;;;;;;;4.93;3.75;;;21.00;99.90;;;;;;5031106;28;20025;-89
2022/06/19 02:39:56;;;;;;;4.00;3.60;;;21.00;99.90;;;;;;5030510;28;20029;-88
2022/06/19 02:42:26;;;;;;;4.63;3.33;;;21.10;99.90;;;;;;5031943;28;20017;-89
2022/06/19 02:44:56;;;;;;;9.43;3.20;;;21.10;99.90;;;;;;5029779;28;20025;-88
2022/06/19 02:47:26;;;;;;;3.58;3.28;;;21.10;99.90;;;;;;5031014;28;20381;-88
2022/06/19 02:49:53;;;;;;;6.60;3.92;;;21.00;99.90;;;;;;5031868;28;20025;-89
2022/06/19 02:52:19;;;;;;;5.20;3.47;;;21.00;99.90;;;;;;5032445;28;20029;-88
2022/06/19 02:54:45;;;;;;;4.88;3.58;;;21.00;99.90;;;;;;5021034;28;20025;-89
2022/06/19 02:57:13;;;;;;;4.25;3.28;;;21.00;99.90;;;;;;5032485;28;20103;-88
2022/06/19 02:59:40;;;;;;;4.00;3.60;;;20.90;99.90;;;;;;5031007;28;20507;-89
2022/06/19 03:02:06;;;;;;;5.03;3.63;;;20.90;99.90;;;;;;5031981;28;20176;-88
2022/06/19 03:04:39;;;;;;;5.28;3.40;;;20.90;99.90;;;;;;5030903;28;20095;-88
2022/06/19 03:07:05;;;;;;;5.60;3.33;;;20.80;99.90;;;;;;5031791;28;20033;-88
2022/06/19 03:09:31;;;;;;;3.47;3.08;;;20.70;99.90;;;;;;5026495;28;20084;-88
2022/06/19 03:11:57;;;;;;;4.53;3.17;;;20.60;99.90;;;;;;5031784;28;20045;-88
2022/06/19 03:14:24;;;;;;;3.85;3.30;;;20.60;99.90;;;;;;5030879;28;20033;-89
2022/06/19 03:16:51;;;;;;;4.20;2.92;;;20.60;99.90;;;;;;5031965;28;20515;-88
2022/06/19 03:19:16;;;;;;;6.35;2.90;;;20.50;99.90;;;;;;5031074;28;20076;-87
2022/06/19 03:21:42;;;;;;;5.40;3.20;;;20.50;99.90;;;;;;5031557;28;20037;-87
2022/06/19 03:24:08;;;;;;;3.58;3.15;;;20.60;99.90;;;;;;5030174;28;20021;-86
2022/06/19 03:26:34;;;;;;;4.22;2.80;;;20.60;99.90;;;;;;5031486;28;20455;-86
2022/06/19 03:29:00;;;;;;;5.10;3.03;;;20.70;99.90;;;;;;5029668;28;20021;-86
2022/06/19 03:31:28;;;;;;;4.93;3.35;;;20.90;99.90;;;;;;5031829;28;20491;-87
2022/06/19 03:33:54;;;;;;;3.70;3.10;;;21.00;99.90;;;;;;5029760;28;20025;-88
2022/06/19 03:36:20;;;;;;;3.88;3.20;;;21.10;99.90;;;;;;5031399;28;20108;-88
2022/06/19 03:38:47;;;;;;;2.85;2.63;;;21.00;99.90;;;;;;5030303;28;20026;-86
2022/06/19 03:41:13;;;;;;;4.18;2.85;;;21.10;99.90;;;;;;5031851;28;20053;-86
2022/06/19 03:43:39;;;;;;;6.55;2.80;;;21.10;99.90;;;;;;5034596;28;20028;-87
2022/06/19 03:46:12;;;;;;;4.45;3.33;;;21.20;99.90;;;;;;5033698;28;20041;-87
2022/06/19 03:48:49;;;;;;;5.50;2.92;;;21.20;99.90;;;;;;5031652;28;20041;-86
2022/06/19 03:51:16;;;;;;;4.55;3.00;;;21.20;99.90;;;;;;5031070;28;20117;-87
2022/06/19 03:53:42;;;;;;;3.03;2.70;;;21.20;99.90;;;;;;5033946;28;20018;-88
2022/06/19 03:56:12;;;;;;;4.32;2.80;;;21.20;99.90;;;;;;5033886;28;20040;-87
2022/06/19 03:58:47;;;;;;;3.80;2.80;;;21.20;99.90;;;;;;5033129;28;20412;-86
2022/06/19 04:01:17;;;;;;;3.25;2.70;;;21.30;99.90;;;;;;5035486;28;20029;-87
2022/06/19 04:03:43;;;;;;;8.15;3.58;;;21.30;99.90;;;;;;5033734;28;20021;-86
2022/06/19 04:06:13;;;;;;;4.45;3.30;;;21.30;99.90;;;;;;5034951;28;20072;-87
2022/06/19 04:08:41;;;;;;;7.38;3.30;;;21.30;99.90;;;;;;5031370;28;20510;-86
2022/06/19 04:11:07;;;;;;;3.17;2.88;;;21.30;99.90;;;;;;5030506;28;20030;-88
2022/06/19 04:13:36;;;;;;;6.20;3.30;;;21.40;99.90;;;;;;5017678;28;20041;-88
2022/06/19 04:16:06;;;;;;;4.35;2.97;;;21.50;99.90;;;;;;5033580;28;20025;-89
2022/06/19 04:18:32;;;;;;;9.02;3.10;;;21.50;99.90;;;;;;5033705;28;20036;-89
2022/06/19 04:21:00;;;;;;;3.88;2.97;;;21.50;99.90;;;;;;5027077;28;20029;-88
2022/06/19 04:23:27;;;;;;;4.40;2.60;;;21.60;99.90;;;;;;5033446;28;20073;-87
2022/06/19 04:25:53;;;;;;;3.10;2.78;;;21.70;99.90;;;;;;5033049;28;20049;-87
2022/06/19 04:28:23;;;;;;;5.40;2.72;;;21.70;99.90;;;;;;5034153;28;20020;-87
2022/06/19 04:30:53;;;;;;;3.00;2.70;;;21.70;99.90;;;;;;5036997;28;20488;-86
2022/06/19 04:33:21;;;;;;;5.00;3.10;;;21.80;99.90;;;;;;5033616;28;20025;-87
2022/06/19 04:35:48;;;;;;;4.22;3.00;;;21.80;99.90;;;;;;5032802;28;20026;-88
2022/06/19 04:38:14;;;;;;;4.97;2.53;;;21.90;99.90;;;;;;5032453;28;20033;-88
2022/06/19 04:40:41;;;;;;;4.68;2.65;;;21.90;99.90;;;;;;5024144;28;20060;-88
2022/06/19 04:43:07;;;;;;;5.65;2.88;;;22.00;99.90;;;;;;5033800;28;20053;-87
2022/06/19 04:45:33;;;;;;;7.63;2.78;;;22.20;99.90;;;;;;5023068;28;20063;-87
2022/06/19 04:47:59;;;;;;;4.32;2.60;;;22.20;99.90;;;;;;5032593;28;20201;-88
2022/06/19 04:50:25;;;;;;;4.13;2.55;;;22.20;99.90;;;;;;5033883;28;20033;-89
2022/06/19 04:52:51;;;;;;;3.25;2.70;;;22.30;99.90;;;;;;5032535;28;20017;-88
2022/06/19 04:55:18;;;;;;;5.15;2.40;;;22.30;99.90;;;;;;5029765;28;20029;-88
2022/06/19 04:57:44;;;;;;;2.42;2.22;;;22.30;99.90;;;;;;5034396;28;20034;-88
2022/06/19 05:00:15;;;;;;;3.53;2.88;;;22.40;99.90;;;;;;5030349;28;20026;-88
2022/06/19 05:02:42;;;;;;;2.78;2.50;;;22.40;99.90;;;;;;5014042;28;20076;-89
2022/06/19 05:05:14;;;;;;;3.75;2.78;;;22.40;99.90;;;;;;5030327;28;20064;-89
2022/06/19 05:07:40;;;;;;;;;;;22.50;99.90;;;;;;5033469;28;20503;-87
2022/06/19 05:10:06;;;;;;;4.55;2.67;;;22.50;99.90;;;;;;5032288;28;19909;-86
2022/06/19 05:12:32;;;;;;;3.03;2.28;;;22.60;99.90;;;;;;5032477;28;20025;-86
2022/06/19 05:14:57;;;;;;;2.53;2.28;;;22.70;99.90;;;;;;5029602;28;20037;-87
2022/06/19 05:17:23;;;;;;;4.38;2.50;;;22.80;99.90;;;;;;5033762;28;20030;-87
2022/06/19 05:19:49;;;;;;;4.05;2.75;;;22.90;99.90;;;;;;5032594;28;20072;-86
2022/06/19 05:22:14;;;;;;;4.85;3.33;;;22.90;99.90;;;;;;5032209;28;20029;-87
2022/06/19 05:24:40;;;;;;;2.80;2.28;;;22.90;99.90;;;;;;5031822;28;20061;-88
2022/06/19 05:27:09;;;;;;;3.05;2.50;;;23.00;99.90;;;;;;5033327;28;20033;-87
2022/06/19 05:29:35;;;;;;;8.95;2.58;;;23.10;99.90;;;;;;5032151;28;20049;-85
2022/06/19 05:32:04;;;;;;;5.40;2.00;;;23.20;99.90;;;;;;5033440;28;20455;-87
2022/06/19 05:34:34;;;;;;;3.30;2.28;;;23.30;99.90;;;;;;5028880;28;20040;-87
2022/06/19 05:37:00;;;;;;;4.85;2.17;;;23.50;99.90;;;;;;5033376;28;20504;-87
2022/06/19 05:39:26;;;;;;;3.58;2.67;;;23.60;99.90;;;;;;5032368;28;20033;-88
2022/06/19 05:41:52;;;;;;;3.35;2.53;;;23.80;99.90;;;;;;5033882;28;20385;-88
2022/06/19 05:44:19;;;;;;;3.75;2.40;;;23.80;99.90;;;;;;5024126;28;20403;-88
2022/06/19 05:46:48;;;;;;;2.97;2.30;;;23.80;99.90;;;;;;5028585;28;20400;-88
2022/06/19 05:49:13;;;;;;;2.92;2.25;;;23.80;99.90;;;;;;5029386;28;20029;-86
2022/06/19 05:51:39;;;;;;;2.53;1.90;;;23.80;99.90;;;;;;5031991;28;20109;-88
2022/06/19 05:54:05;;;;;;;2.47;2.00;;;23.90;99.90;;;;;;5029613;28;20026;-87
2022/06/19 05:56:31;;;;;;;1.92;1.83;;;24.00;99.90;;;;;;5031906;28;20017;-88
2022/06/19 05:58:56;;;;;;;3.97;2.13;;;24.00;99.90;;;;;;5028752;28;20032;-89
2022/06/19 06:01:23;;;;;;;4.20;2.10;;;24.10;99.90;;;;;;5024164;28;20061;-88
2022/06/19 06:03:50;;;;;;;6.00;2.35;;;24.20;99.90;;;;;;5020035;28;20031;-87
2022/06/19 06:06:19;;;;;;;4.43;1.80;;;24.30;99.90;;;;;;5030462;28;20488;-88
2022/06/19 06:08:45;;;;;;;3.08;1.90;;;24.30;99.90;;;;;;5031499;28;20112;-88
2022/06/19 06:11:12;;;;;;;3.28;1.98;;;24.40;99.90;;;;;;5032498;28;20049;-85
2022/06/19 06:13:37;;;;;;;5.90;2.20;;;24.50;99.90;;;;;;5031451;28;20038;-85
2022/06/19 06:16:03;;;;;;;3.30;2.35;;;24.70;99.90;;;;;;5032230;28;20026;-86
2022/06/19 06:18:29;;;;;;;3.75;1.90;;;24.80;99.90;;;;;;5030926;28;20086;-89
2022/06/19 06:20:55;;;;;;;3.78;1.90;;;24.90;99.90;;;;;;5031393;28;20032;-88
2022/06/19 06:23:22;;;;;;;3.67;1.55;;;25.00;99.90;;;;;;5031611;28;20025;-88
2022/06/19 06:25:48;;;;;;;5.30;2.30;;;25.10;99.90;;;;;;5032128;28;20041;-86
2022/06/19 06:28:14;;;;;;;8.55;2.65;;;25.10;99.90;;;;;;5031983;28;20035;-87
2022/06/19 06:30:40;;;;;;;2.40;1.90;;;25.20;99.90;;;;;;5032087;28;20036;-88
2022/06/19 06:33:05;;;;;;;2.90;1.77;;;25.20;99.90;;;;;;5031852;28;20514;-88
2022/06/19 06:35:32;;;;;;;9.50;2.33;;;25.30;99.90;;;;;;5031753;28;20033;-89
2022/06/19 06:37:59;;;;;;;2.28;1.65;;;25.30;99.90;;;;;;5030875;28;20030;-88
2022/06/19 06:40:25;;;;;;;3.55;2.25;;;25.50;99.90;;;;;;5024365;28;20025;-88
2022/06/19 06:42:51;;;;;;;6.63;2.35;;;25.70;99.90;;;;;;5030974;28;20021;-88
2022/06/19 06:45:17;;;;;;;2.80;1.92;;;25.80;99.90;;;;;;5030972;28;20480;-88
2022/06/19 06:47:43;;;;;;;5.07;1.90;;;25.80;99.90;;;;;;5031061;28;20080;-89
2022/06/19 06:50:09;;;;;;;3.05;1.95;;;25.80;99.90;;;;;;5028433;28;20092;-89
2022/06/19 06:52:35;;;;;;;3.95;2.00;;;25.80;99.90;;;;;;5030833;28;20067;-86
2022/06/19 06:55:01;;;;;;;5.75;2.10;;;26.10;99.90;;;;;;5020640;28;20473;-92
2022/06/19 06:57:27;;;;;;;6.72;2.15;;;26.00;99.90;;;;;;5029422;28;20060;-82
2022/06/19 06:59:52;;;;;;;10.60;2.28;;;26.10;99.90;;;;;;5030542;28;20021;-86
2022/06/19 07:02:18;;;;;;;2.08;1.58;;;26.20;99.90;;;;;;5016324;28;20492;-90
2022/06/19 07:04:44;;;;;;;22.40;3.83;;;26.20;99.90;;;;;;5025394;28;20480;-91
2022/06/19 07:07:09;;;;;;;7.68;3.20;;;26.30;99.90;;;;;;5032206;28;20072;-90
2022/06/19 07:09:35;;;;;;;2.97;2.00;;;26.20;99.90;;;;;;5026838;28;20022;-87
2022/06/19 07:12:02;;;;;;;3.45;2.38;;;26.20;99.90;;;;;;5031623;28;20025;-87
2022/06/19 07:14:28;;;;;;;23.15;4.55;;;26.10;99.90;;;;;;5030415;28;20029;-89
2022/06/19 07:16:53;;;;;;;7.78;3.05;;;26.10;99.90;;;;;;5030289;28;20618;-89
2022/06/19 07:19:19;;;;;;;6.07;2.67;;;26.00;99.90;;;;;;5031438;28;20092;-90
2022/06/19 07:21:45;;;;;;;4.15;2.50;;;26.10;99.90;;;;;;5025384;28;20025;-89
2022/06/19 07:24:10;;;;;;;5.88;2.47;;;26.30;99.90;;;;;;5027168;28;20018;-90
2022/06/19 07:26:36;;;;;;;13.10;3.30;;;26.40;99.90;;;;;;5032154;28;20045;-92
2022/06/19 07:29:03;;;;;;;18.25;4.90;;;26.40;99.90;;;;;;5032653;28;20488;-91
2022/06/19 07:31:29;;;;;;;17.02;4.15;;;26.30;99.90;;;;;;5032009;28;20029;-90
2022/06/19 07:33:55;;;;;;;15.20;3.80;;;26.30;99.90;;;;;;5030891;28;20025;-91
2022/06/19 07:36:22;;;;;;;8.57;3.65;;;26.30;99.90;;;;;;5032014;28;20392;-90
2022/06/19 07:38:48;;;;;;;10.75;3.47;;;26.20;99.90;;;;;;5024375;28;20109;-89
2022/06/19 07:41:15;;;;;;;10.00;3.25;;;26.00;99.90;;;;;;5042156;28;20029;-89
2022/06/19 07:43:43;;;;;;;8.85;3.35;;;26.00;99.90;;;;;;5039201;28;20025;-89
2022/06/19 07:46:09;;;;;;;7.25;3.72;;;26.10;99.90;;;;;;5031118;28;20099;-91
2022/06/19 07:51:19;;;;;;;9.98;3.55;;;26.20;99.90;;;;;;5029683;28;20048;-89
2022/06/19 07:53:45;;;;;;;12.25;3.70;;;26.20;99.90;;;;;;5031598;28;20022;-93
2022/06/19 07:56:11;;;;;;;6.82;3.35;;;26.00;99.90;;;;;;5032885;28;20531;-92
2022/06/19 07:58:37;;;;;;;4.30;3.35;;;26.10;99.90;;;;;;5032495;28;20018;-92
2022/06/19 08:01:03;;;;;;;10.02;3.63;;;26.10;99.90;;;;;;5031586;28;20108;-89
2022/06/19 08:03:29;;;;;;;4.07;3.22;;;26.20;99.90;;;;;;5030733;28;20025;-92
2022/06/19 08:05:54;;;;;;;5.05;3.40;;;26.00;99.90;;;;;;5027677;28;20034;-84
2022/06/19 08:08:25;;;;;;;5.22;3.42;;;25.90;99.90;;;;;;5029321;28;20425;-89
2022/06/19 08:10:52;;;;;;;9.48;4.05;;;25.80;99.90;;;;;;5024265;28;20033;-93
2022/06/19 08:13:20;;;;;;;5.13;3.70;;;25.90;99.90;;;;;;5030844;28;20484;-88
2022/06/19 08:15:57;;;;;;;5.88;4.43;;;25.90;99.90;;;;;;5031594;28;20025;-91
2022/06/19 08:18:23;;;;;;;7.40;3.92;;;25.90;99.90;;;;;;5031706;28;20026;-89
2022/06/19 08:20:49;;;;;;;6.90;4.00;;;25.90;99.90;;;;;;5031100;28;20079;-84
2022/06/19 08:23:14;;;;;;;4.13;3.55;;;25.90;99.90;;;;;;5029114;28;20038;-96
2022/06/19 08:25:41;;;;;;;6.05;3.83;;;25.90;99.90;;;;;;5032333;28;20052;-88
2022/06/19 08:28:07;;;;;;;4.97;4.22;;;26.00;99.90;;;;;;5030207;28;20029;-90
2022/06/19 08:30:36;;;;;;;9.75;4.32;;;26.10;99.90;;;;;;5034908;28;20109;-88
2022/06/19 08:33:07;;;;;;;12.90;4.00;;;26.20;99.90;;;;;;5033803;28;20025;-85
2022/06/19 08:35:39;;;;;;;5.78;3.75;;;26.10;99.90;;;;;;5018393;28;20481;-85
2022/06/19 08:38:15;;;;;;;12.45;4.13;;;26.10;99.90;;;;;;5033940;28;20040;-86
2022/06/19 08:40:49;;;;;;;6.75;3.45;;;26.00;99.90;;;;;;5032154;28;20037;-86
2022/06/19 08:43:27;;;;;;;4.45;3.80;;;25.90;99.90;;;;;;5034799;28;20022;-90
2022/06/19 08:46:25;;;;;;;5.43;3.53;;;26.00;99.90;;;;;;5026941;28;20029;-89
2022/06/19 08:49:10;;;;;;;6.97;3.47;;;26.00;99.90;;;;;;5025564;28;20050;-86
2022/06/19 08:51:48;;;;;;;5.82;4.18;;;26.00;99.90;;;;;;5031890;28;20026;-87
2022/06/19 08:54:29;;;;;;;9.82;3.42;;;26.00;99.90;;;;;;5024161;28;20050;-86
2022/06/19 08:57:32;;;;;;;5.40;3.05;;;25.80;99.90;;;;;;5027851;28;20029;-87
2022/06/19 09:00:10;;;;;;;4.90;3.80;;;25.70;99.90;;;;;;5029464;28;20025;-84
2022/06/19 09:03:05;;;;;;;7.13;3.58;;;25.80;99.90;;;;;;5032895;28;20108;-92
2022/06/19 09:05:50;;;;;;;6.57;4.20;;;25.70;99.90;;;;;;5032289;28;20049;-87
2022/06/19 09:08:34;;;;;;;7.43;3.83;;;25.70;99.90;;;;;;5032758;28;20022;-88
2022/06/19 09:11:06;;;;;;;6.95;3.90;;;25.80;99.90;;;;;;5034274;28;20040;-95
2022/06/19 09:13:44;;;;;;;6.38;4.07;;;26.00;99.90;;;;;;5039366;28;20022;-89
2022/06/19 09:16:36;;;;;;;11.60;4.50;;;26.20;99.90;;;;;;5023278;28;20037;-91
2022/06/19 09:19:25;;;;;;;6.90;4.00;;;26.00;99.90;;;;;;5032468;28;20021;-88
2022/06/19 09:22:02;;;;;;;7.38;4.40;;;25.90;99.90;;;;;;5028188;28;20080;-85
2022/06/19 09:24:37;;;;;;;5.80;4.20;;;26.10;99.90;;;;;;5027042;28;20591;-87
2022/06/19 09:27:03;;;;;;;4.07;3.67;;;26.10;99.90;;;;;;5031211;28;20041;-89
2022/06/19 09:29:49;;;;;;;4.30;3.75;;;25.90;99.90;;;;;;5024743;28;20026;-88
2022/06/19 09:32:33;;;;;;;5.47;3.67;;;26.10;99.90;;;;;;5028121;28;20026;-88
2022/06/19 09:35:11;;;;;;;5.63;4.10;;;26.10;99.90;;;;;;5032578;28;20029;-91
2022/06/19 09:37:51;;;;;;;6.90;5.00;;;26.10;99.90;;;;;;5011752;28;20049;-86
2022/06/19 09:40:28;;;;;;;10.23;5.75;;;26.10;99.90;;;;;;5027034;28;20029;-87
2022/06/19 09:43:20;;;;;;;10.38;5.65;;;26.00;99.90;;;;;;5011229;28;20103;-84
2022/06/19 09:45:54;;;;;;;7.13;6.25;;;25.60;99.90;;;;;;5030803;28;20033;-88
2022/06/19 09:48:33;;;;;;;8.73;7.00;;;25.60;99.90;;;;;;5030940;28;20056;-89
2022/06/19 09:51:08;;;;;;;8.77;5.90;;;25.70;99.90;;;;;;5031214;28;20032;-89
2022/06/19 09:53:40;;;;;;;9.32;5.25;;;25.70;99.90;;;;;;5024074;28;20026;-89
2022/06/19 09:56:19;;;;;;;;;;;25.80;99.90;;;;;;5029412;28;20036;-87
2022/06/19 09:59:12;;;;;;;6.50;4.75;;;25.80;99.90;;;;;;5026612;28;20458;-89
2022/06/19 10:01:39;;;;;;;6.72;5.07;;;25.90;99.90;;;;;;5030494;28;20446;-89
2022/06/19 10:04:14;;;;;;;6.88;4.22;;;26.00;99.90;;;;;;5030539;28;20024;-87
2022/06/19 10:06:54;;;;;;;7.68;4.45;;;26.10;99.90;;;;;;5028628;28;20048;-90
2022/06/19 10:09:28;;;;;;;7.18;5.97;;;26.10;99.90;;;;;;5028218;28;20022;-88
2022/06/19 10:11:58;;;;;;;13.60;6.20;;;26.10;99.90;;;;;;5028559;28;20032;-85
2022/06/19 10:14:43;;;;;;;9.25;5.05;;;26.00;99.90;;;;;;5024761;28;20496;-93
2022/06/19 10:17:21;;;;;;;9.80;6.85;;;26.00;99.90;;;;;;5027866;28;20029;-87
2022/06/19 10:19:56;;;;;;;8.68;5.85;;;26.00;99.90;;;;;;5027778;28;20033;-84
2022/06/19 10:22:46;;;;;;;7.55;5.70;;;25.90;99.90;;;;;;5016309;28;20493;-85
2022/06/19 10:25:42;;;;;;;7.82;5.95;;;25.70;99.90;;;;;;5022332;28;20135;-86
2022/06/19 10:28:16;;;;;;;9.90;6.53;;;25.70;99.90;;;;;;5017289;28;20036;-86
2022/06/19 10:30:58;;;;;;;6.72;5.57;;;25.80;99.90;;;;;;5027788;28;20409;-84
2022/06/19 10:33:43;;;;;;;7.03;6.28;;;26.00;99.90;;;;;;5014257;28;20079;-84
2022/06/19 10:36:23;;;;;;;12.93;5.35;;;25.90;99.90;;;;;;5029426;28;20788;-89
2022/06/19 10:39:08;;;;;;;10.27;5.90;;;26.00;99.90;;;;;;5025964;28;20034;-92
2022/06/19 10:42:04;;;;;;;9.05;5.60;;;26.00;99.90;;;;;;5031696;28;20022;-89
2022/06/19 10:44:37;;;;;;;11.82;5.43;;;26.10;99.90;;;;;;5022792;28;20029;-88
2022/06/19 10:47:19;;;;;;;7.82;5.30;;;26.40;99.90;;;;;;5015646;28;20037;-85
2022/06/19 10:49:56;;;;;;;5.95;4.80;;;26.60;99.90;;;;;;5025976;28;20017;-84
2022/06/19 10:52:34;;;;;;;5.65;4.60;;;26.50;99.90;;;;;;5027368;28;20389;-86
2022/06/19 10:55:23;;;;;;;8.55;5.07;;;26.70;99.90;;;;;;5029593;28;20022;-87
2022/06/19 10:58:18;;;;;;;10.80;5.18;;;26.60;99.90;;;;;;5030290;28;20506;-87
2022/06/19 11:00:45;;;;;;;8.95;5.30;;;26.40;99.90;;;;;;5029816;28;20116;-86
2022/06/19 11:06:20;;;;;;;8.93;4.53;;;26.60;99.90;;;;;;5021682;28;20049;-86
2022/06/19 11:08:53;;;;;;;6.95;4.50;;;26.50;99.90;;;;;;5017070;28;20021;-94
2022/06/19 11:11:20;;;;;;;6.90;4.30;;;26.40;99.90;;;;;;5027570;28;20033;-85
2022/06/19 11:13:59;;;;;;;5.43;4.18;;;26.50;99.90;;;;;;5028826;28;20026;-85
2022/06/19 11:16:26;;;;;;;5.70;3.30;;;26.70;99.90;;;;;;5017140;28;20033;-87
2022/06/19 11:18:54;;;;;;;6.70;3.70;;;27.00;99.90;;;;;;5025410;28;20022;-92
2022/06/19 11:21:25;;;;;;;7.82;3.97;;;27.00;99.90;;;;;;5030937;28;20025;-87
2022/06/19 11:23:55;;;;;;;5.25;3.30;;;27.10;99.90;;;;;;5030063;28;20013;-91
2022/06/19 11:26:43;;;;;;;5.13;2.97;;;27.10;99.90;;;;;;5031438;28;20431;-88
2022/06/19 11:29:15;;;;;;;4.05;3.08;;;27.00;99.90;;;;;;5030543;28;20515;-88
2022/06/19 11:32:17;;;;;;;5.03;3.28;;;27.10;99.90;;;;;;5032740;28;20140;-86
2022/06/19 11:34:54;;;;;;;3.58;2.72;;;27.20;99.90;;;;;;5030541;28;20033;-88
2022/06/19 11:37:23;;;;;;;2.90;2.60;;;27.10;99.90;;;;;;5031905;28;20033;-82
2022/06/19 11:40:08;;;;;;;3.83;2.75;;;27.10;99.90;;;;;;5030404;28;20029;-86
2022/06/19 11:42:50;;;;;;;3.00;2.53;;;27.40;99.90;;;;;;5027889;28;20025;-91
2022/06/19 11:45:15;;;;;;;14.57;2.80;;;27.40;99.90;;;;;;5029769;28;20163;-88
2022/06/19 11:47:47;;;;;;;4.13;2.72;;;27.30;99.90;;;;;;5031364;28;20108;-89
2022/06/19 11:50:16;;;;;;;4.80;2.70;;;27.30;99.90;;;;;;5030820;28;20115;-92
2022/06/19 11:52:51;;;;;;;4.78;3.30;;;27.30;99.90;;;;;;5032163;28;20547;-92
2022/06/19 11:55:41;;;;;;;6.03;3.20;;;27.20;99.90;;;;;;5019235;28;20117;-90
2022/06/19 11:58:22;;;;;;;5.40;3.15;;;26.90;99.90;;;;;;5031235;28;20499;-92
2022/06/19 12:01:18;;;;;;;3.22;2.92;;;26.50;99.90;;;;;;5023041;28;20025;-87
2022/06/19 12:03:46;;;;;;;6.03;2.95;;;27.10;99.90;;;;;;5029428;28;20554;-93
2022/06/19 12:06:14;;;;;;;4.68;3.17;;;29.80;99.90;;;;;;5031875;28;20037;-91
2022/06/19 12:08:57;;;;;;;4.45;2.92;;;31.00;99.90;;;;;;5033787;28;20477;-89
2022/06/19 12:12:12;;;;;;;5.65;2.72;;;32.00;99.90;;;;;;5031891;28;20120;-92
2022/06/19 12:14:47;;;;;;;4.22;3.03;;;33.30;99.90;;;;;;5018390;28;20033;-88
2022/06/19 12:17:26;;;;;;;4.13;3.15;;;32.40;99.90;;;;;;5035664;28;20025;-92
2022/06/19 12:20:01;;;;;;;3.88;2.78;;;32.30;99.90;;;;;;5033763;28;20021;-86
2022/06/19 12:22:40;;;;;;;5.68;2.88;;;32.90;99.90;;;;;;5015630;28;20278;-83
2022/06/19 12:25:24;;;;;;;6.72;3.08;;;33.20;99.90;;;;;;5030599;28;20106;-87
2022/06/19 12:27:56;;;;;;;3.45;2.88;;;32.80;99.90;;;;;;5033504;28;20116;-92
2022/06/19 12:30:34;;;;;;;5.55;3.10;;;32.40;99.90;;;;;;5032528;28;20037;-89
2022/06/19 12:33:08;;;;;;;4.07;2.85;;;32.60;99.90;;;;;;5014264;28;20022;-86
2022/06/19 12:35:41;;;;;;;7.55;2.70;;;33.10;99.90;;;;;;5021367;28;20026;-90
2022/06/19 12:38:16;;;;;;;4.78;2.72;;;33.30;99.90;;;;;;5015477;28;20082;-87
2022/06/19 12:40:57;;;;;;;4.32;2.60;;;33.70;99.90;;;;;;5049473;28;20026;-92
2022/06/19 12:43:33;;;;;;;4.77;2.97;;;33.20;99.90;;;;;;5033419;28;20294;-86
2022/06/19 12:45:59;;;;;;;7.35;3.10;;;33.20;99.90;;;;;;5031779;28;20825;-88
2022/06/19 12:49:01;;;;;;;4.20;3.00;;;34.00;99.90;;;;;;5032847;28;20033;-86
2022/06/19 12:51:37;;;;;;;3.95;2.50;;;35.70;99.60;;;;;;5030741;28;20033;-83
2022/06/19 12:54:31;;;;;;;3.45;2.47;;;36.30;99.50;;;;;;5032713;28;20160;-88
2022/06/19 12:57:26;;;;;;;3.92;2.63;;;36.60;99.50;;;;;;5028076;28;20072;-86
2022/06/19 12:59:58;;;;;;;4.32;3.05;;;36.30;98.10;;;;;;5030407;28;20056;-92
2022/06/19 13:02:48;;;;;;;6.93;3.63;;;36.10;97.70;;;;;;5032489;28;20040;-92
2022/06/19 13:05:41;;;;;;;8.32;3.05;;;34.60;99.40;;;;;;5033088;28;20385;-90
2022/06/19 13:08:30;;;;;;;6.32;2.75;;;34.80;99.30;;;;;;5015101;28;20042;-89
2022/06/19 13:11:26;;;;;;;4.82;3.20;;;34.30;99.20;;;;;;5032140;28;20025;-86
2022/06/19 13:14:10;;;;;;;3.28;2.83;;;35.40;99.70;;;;;;5032245;28;20025;-88
2022/06/19 13:17:08;;;;;;;6.32;2.90;;;36.10;98.30;;;;;;5032046;28;20025;-90